createdAt,value
2019-02-11T00:00:02.614Z,76.80
2019-02-11T00:02:48.929Z,76.70
2019-02-11T00:05:33.486Z,76.40
2019-02-11T00:08:17.961Z,77.60
2019-02-11T00:11:02.693Z,77.30
2019-02-11T00:13:47.349Z,77.90
2019-02-11T00:16:40.373Z,78.20
2019-02-11T00:19:25.534Z,77.30
2019-02-11T00:22:10.612Z,77.10
2019-02-11T00:25:04.540Z,77.30
2019-02-11T00:27:48.998Z,77.00
2019-02-11T00:30:35.284Z,76.70
2019-02-11T00:33:19.930Z,76.40
2019-02-11T00:36:05.041Z,76.30
2019-02-11T00:38:50.141Z,76.40
2019-02-11T00:41:34.842Z,76.20
2019-02-11T00:44:19.685Z,75.90
2019-02-11T00:47:04.557Z,75.70
2019-02-11T00:49:49.358Z,75.30
2019-02-11T00:52:34.942Z,75.70
2019-02-11T00:55:19.515Z,74.90
2019-02-11T00:58:13.043Z,75.20
2019-02-11T01:00:57.519Z,74.40
2019-02-11T01:03:41.990Z,74.00
2019-02-11T01:06:26.722Z,74.70
2019-02-11T01:09:11.975Z,74.00
2019-02-11T01:11:56.805Z,74.60
2019-02-11T01:14:41.730Z,74.60
2019-02-11T01:17:26.635Z,75.00
2019-02-11T01:20:11.401Z,75.00
2019-02-11T01:22:55.538Z,76.30
2019-02-11T01:25:40.061Z,75.90
2019-02-11T01:28:33.385Z,76.80
2019-02-11T01:31:18.179Z,76.50
2019-02-11T01:34:02.980Z,76.50
2019-02-11T01:36:47.741Z,77.40
2019-02-11T01:39:32.239Z,77.30
2019-02-11T01:42:17.145Z,77.70
2019-02-11T01:45:01.784Z,77.60
2019-02-11T01:47:46.794Z,77.80
2019-02-11T01:50:31.751Z,77.80
2019-02-11T01:53:15.990Z,78.30
2019-02-11T01:56:00.678Z,77.90
2019-02-11T01:58:45.979Z,77.70
2019-02-11T02:01:30.994Z,77.30
2019-02-11T02:04:15.814Z,77.40
2019-02-11T02:07:00.779Z,76.80
2019-02-11T02:09:45.737Z,76.10
2019-02-11T02:12:39.455Z,76.60
2019-02-11T02:15:24.539Z,76.80
2019-02-11T02:18:09.863Z,76.40
2019-02-11T02:21:03.135Z,75.60
2019-02-11T02:23:48.477Z,75.80
2019-02-11T02:26:42.490Z,76.00
2019-02-11T02:29:36.559Z,75.30
2019-02-11T02:32:30.220Z,75.30
2019-02-11T02:35:15.123Z,75.40
2019-02-11T02:38:00.622Z,75.80
2019-02-11T02:40:54.502Z,75.50
2019-02-11T02:43:55.095Z,75.90
2019-02-11T02:46:34.683Z,74.90
2019-02-11T02:49:19.955Z,74.60
2019-02-11T02:52:13.626Z,74.90
2019-02-11T02:54:58.513Z,74.50
2019-02-11T02:57:43.516Z,75.10
2019-02-11T03:00:37.270Z,76.20
2019-02-11T03:03:23.392Z,76.70
2019-02-11T03:06:08.380Z,77.90
2019-02-11T03:08:53.189Z,78.50
2019-02-11T03:11:38.547Z,80.10
2019-02-11T03:14:32.011Z,81.20
2019-02-11T03:17:17.067Z,82.60
2019-02-11T03:20:01.891Z,84.80
2019-02-11T03:22:56.083Z,86.20
2019-02-11T03:25:49.983Z,87.10
2019-02-11T03:28:34.360Z,88.00
2019-02-11T03:31:19.133Z,88.10
2019-02-11T03:34:03.991Z,88.60
2019-02-11T03:36:48.334Z,89.40
2019-02-11T03:39:33.473Z,89.40
2019-02-11T03:42:18.946Z,88.70
2019-02-11T03:45:12.802Z,89.00
2019-02-11T03:47:57.594Z,89.30
2019-02-11T03:50:42.598Z,88.30
2019-02-11T03:53:27.230Z,87.80
2019-02-11T03:56:12.313Z,87.60
2019-02-11T03:59:06.314Z,88.40
2019-02-11T04:01:50.763Z,88.80
2019-02-11T04:04:35.874Z,89.00
2019-02-11T04:07:21.244Z,89.90
2019-02-11T04:10:14.985Z,89.50
2019-02-11T04:13:08.871Z,89.00
2019-02-11T04:15:53.994Z,89.20
2019-02-11T04:18:47.582Z,89.60
2019-02-11T04:21:32.589Z,88.90
2019-02-11T04:24:17.646Z,89.90
2019-02-11T04:27:11.509Z,90.00
2019-02-11T04:29:56.295Z,89.70
2019-02-11T04:32:40.917Z,89.50
2019-02-11T04:35:25.535Z,89.50
2019-02-11T04:38:10.193Z,89.10
2019-02-11T04:40:54.802Z,87.90
2019-02-11T04:43:39.847Z,86.90
2019-02-11T04:46:24.914Z,86.40
2019-02-11T04:49:09.418Z,86.30
2019-02-11T04:51:54.603Z,87.00
2019-02-11T04:54:40.003Z,85.40
2019-02-11T04:57:33.167Z,85.70
2019-02-11T05:00:18.437Z,84.80
2019-02-11T05:03:03.116Z,84.20
2019-02-11T05:05:48.575Z,85.10
2019-02-11T05:08:41.886Z,85.70
2019-02-11T05:11:26.748Z,84.30
2019-02-11T05:14:11.859Z,84.60
2019-02-11T05:17:05.899Z,84.50
2019-02-11T05:19:50.799Z,84.40
2019-02-11T05:22:45.155Z,84.70
2019-02-11T05:25:38.476Z,86.00
2019-02-11T05:28:22.951Z,86.20
2019-02-11T05:31:07.666Z,84.20
2019-02-11T05:33:52.548Z,84.40
2019-02-11T05:36:36.858Z,84.80
2019-02-11T05:39:30.654Z,83.90
2019-02-11T05:42:15.423Z,83.40
2019-02-11T05:45:08.554Z,83.70
2019-02-11T05:47:54.032Z,82.00
2019-02-11T05:50:38.558Z,82.70
2019-02-11T05:53:22.950Z,81.90
2019-02-11T05:56:35.382Z,79.70
2019-02-11T05:59:20.453Z,81.40
2019-02-11T06:02:05.976Z,80.10
2019-02-11T06:04:50.535Z,80.50
2019-02-11T06:07:43.882Z,79.50
2019-02-11T06:10:28.356Z,78.80
2019-02-11T06:13:12.936Z,79.20
2019-02-11T06:15:57.822Z,78.10
2019-02-11T06:18:43.167Z,77.50
2019-02-11T06:21:28.472Z,77.90
2019-02-11T06:24:21.923Z,77.80
2019-02-11T06:27:06.562Z,77.80
2019-02-11T06:29:51.559Z,77.20
2019-02-11T06:32:36.582Z,76.90
2019-02-11T06:35:21.481Z,76.60
2019-02-11T06:38:06.774Z,76.50
2019-02-11T06:41:00.700Z,76.10
2019-02-11T06:43:54.418Z,76.40
2019-02-11T06:46:39.510Z,77.20
2019-02-11T06:49:33.875Z,77.30
2019-02-11T06:52:27.745Z,77.80
2019-02-11T06:55:21.890Z,77.20
2019-02-11T06:58:15.917Z,77.20
2019-02-11T07:01:09.827Z,77.20
2019-02-11T07:03:55.161Z,78.30
2019-02-11T07:06:48.692Z,79.40
2019-02-11T07:09:33.744Z,80.30
2019-02-11T07:12:27.616Z,80.40
2019-02-11T07:15:21.246Z,81.80
2019-02-11T07:18:08.605Z,81.60
2019-02-11T07:21:02.260Z,80.70
2019-02-11T07:23:47.388Z,80.50
2019-02-11T07:26:41.300Z,80.50
2019-02-11T07:29:26.256Z,81.00
2019-02-11T07:32:20.856Z,80.70
2019-02-11T07:35:05.974Z,80.40
2019-02-11T07:37:50.781Z,80.40
2019-02-11T07:40:35.625Z,79.70
2019-02-11T07:43:30.313Z,78.40
2019-02-11T07:46:44.472Z,78.30
2019-02-11T07:49:51.220Z,77.90
2019-02-11T07:52:44.188Z,77.10
2019-02-11T07:55:47.768Z,76.80
2019-02-11T07:58:32.937Z,76.60
2019-02-11T08:01:18.287Z,76.20
2019-02-11T08:04:12.254Z,75.60
2019-02-11T08:07:06.017Z,75.40
2019-02-11T08:09:53.085Z,74.80
2019-02-11T08:12:46.783Z,74.90
2019-02-11T08:15:40.805Z,73.60
2019-02-11T08:18:25.683Z,74.60
2019-02-11T08:21:19.725Z,73.50
2019-02-11T08:24:13.732Z,74.10
2019-02-11T08:26:58.705Z,74.00
2019-02-11T08:29:52.389Z,73.50
2019-02-11T08:32:37.736Z,74.20
2019-02-11T08:35:31.514Z,73.50
2019-02-11T08:38:16.165Z,73.00
2019-02-11T08:41:01.177Z,73.40
2019-02-11T08:43:46.378Z,73.80
2019-02-11T08:46:40.250Z,72.50
2019-02-11T08:49:34.789Z,72.30
2019-02-11T08:52:28.975Z,72.60
2019-02-11T08:55:14.393Z,71.40
2019-02-11T08:57:58.820Z,71.40
2019-02-11T09:00:43.551Z,70.40
2019-02-11T09:03:28.889Z,69.20
2019-02-11T09:06:14.280Z,69.40
2019-02-11T09:09:08.164Z,69.20
2019-02-11T09:12:04.081Z,68.20
2019-02-11T09:14:49.049Z,68.60
2019-02-11T09:18:03.814Z,68.20
2019-02-11T09:20:57.619Z,67.40
2019-02-11T09:23:59.745Z,67.10
2019-02-11T09:27:01.445Z,66.40
2019-02-11T09:29:46.385Z,65.80
2019-02-11T09:32:31.492Z,65.70
2019-02-11T09:35:25.421Z,64.60
2019-02-11T09:38:20.528Z,64.90
2019-02-11T09:41:05.218Z,64.30
2019-02-11T09:43:50.278Z,65.00
2019-02-11T09:46:35.376Z,63.70
2019-02-11T09:49:29.713Z,64.40
2019-02-11T09:52:23.345Z,64.20
2019-02-11T09:55:08.277Z,63.10
2019-02-11T09:57:53.024Z,62.80
2019-02-11T10:00:37.934Z,63.60
2019-02-11T10:03:23.440Z,63.60
2019-02-11T10:06:08.464Z,64.10
2019-02-11T10:08:53.417Z,63.90
2019-02-11T10:11:38.310Z,63.10
2019-02-11T10:14:23.719Z,63.20
2019-02-11T10:17:17.520Z,63.60
2019-02-11T10:20:02.476Z,64.10
2019-02-11T10:22:48.700Z,62.10
2019-02-11T10:25:33.681Z,62.90
2019-02-11T10:28:19.499Z,63.50
2019-02-11T10:31:04.425Z,62.30
2019-02-11T10:33:49.153Z,63.10
2019-02-11T10:36:34.287Z,63.10
2019-02-11T10:39:20.457Z,62.90
2019-02-11T10:42:05.158Z,61.00
2019-02-11T10:44:50.087Z,61.50
2019-02-11T10:47:35.344Z,62.50
2019-02-11T10:50:19.867Z,62.80
2019-02-11T10:53:05.141Z,61.70
2019-02-11T10:55:58.977Z,60.30
2019-02-11T10:58:44.356Z,59.40
2019-02-11T11:01:37.808Z,59.60
2019-02-11T11:04:22.870Z,59.50
2019-02-11T11:07:08.034Z,58.90
2019-02-11T11:10:02.393Z,58.30
2019-02-11T11:12:47.682Z,57.70
2019-02-11T11:15:32.584Z,59.70
2019-02-11T11:18:17.421Z,59.20
2019-02-11T11:21:02.348Z,58.30
2019-02-11T11:23:47.292Z,59.20
2019-02-11T11:26:32.298Z,59.70
2019-02-11T11:29:17.587Z,59.90
2019-02-11T11:32:11.065Z,60.70
2019-02-11T11:34:55.969Z,61.80
2019-02-11T11:37:41.332Z,63.20
2019-02-11T11:40:34.813Z,63.00
2019-02-11T11:43:19.425Z,63.30
2019-02-11T11:46:04.569Z,62.40
2019-02-11T11:48:49.885Z,62.90
2019-02-11T11:51:43.646Z,62.50
2019-02-11T11:54:37.648Z,62.60
2019-02-11T11:57:38.337Z,61.80
2019-02-11T12:00:23.330Z,61.70
2019-02-11T12:03:08.431Z,63.00
2019-02-11T12:05:53.332Z,63.20
2019-02-11T12:08:38.618Z,64.50
2019-02-11T12:11:32.826Z,64.60
2019-02-11T12:14:27.206Z,65.10
2019-02-11T12:17:21.070Z,65.00
2019-02-11T12:20:15.073Z,64.80
2019-02-11T12:23:09.571Z,64.70
2019-02-11T12:26:03.073Z,64.10
2019-02-11T12:28:48.128Z,63.40
2019-02-11T12:31:42.275Z,63.20
2019-02-11T12:34:36.451Z,63.50
2019-02-11T12:37:30.846Z,61.90
2019-02-11T12:40:24.290Z,62.50
2019-02-11T12:43:09.838Z,62.50
2019-02-11T12:45:54.681Z,61.80
2019-02-11T12:48:39.323Z,60.00
2019-02-11T12:51:32.605Z,61.40
2019-02-11T12:54:17.537Z,61.00
2019-02-11T12:57:01.949Z,59.90
2019-02-11T12:59:46.517Z,60.00
2019-02-11T13:02:31.469Z,59.70
2019-02-11T13:05:21.116Z,59.30
2019-02-11T13:08:03.545Z,59.20
2019-02-11T13:10:57.609Z,59.90
2019-02-11T13:13:51.917Z,60.70
2019-02-11T13:16:45.637Z,60.70
2019-02-11T13:19:30.499Z,59.70
2019-02-11T13:22:15.572Z,59.60
2019-02-11T13:25:09.577Z,59.30
2019-02-11T13:28:03.763Z,58.50
2019-02-11T13:30:57.771Z,58.30
2019-02-11T13:33:42.623Z,58.90
2019-02-11T13:36:37.122Z,59.80
2019-02-11T13:39:31.432Z,60.90
2019-02-11T13:42:16.499Z,61.80
2019-02-11T13:45:04.930Z,61.60
2019-02-11T13:47:55.154Z,62.10
2019-02-11T13:50:36.087Z,62.40
2019-02-11T13:53:20.980Z,62.30
2019-02-11T13:56:06.079Z,62.20
2019-02-11T13:59:00.390Z,62.50
2019-02-11T14:01:54.580Z,61.70
2019-02-11T14:04:48.035Z,61.40
2019-02-11T14:07:32.861Z,61.80
2019-02-11T14:10:17.899Z,61.60
2019-02-11T14:13:03.207Z,60.10
2019-02-11T14:15:56.995Z,60.30
2019-02-11T14:18:51.819Z,60.50
2019-02-11T14:21:47.093Z,59.70
2019-02-11T14:24:40.746Z,59.60
2019-02-11T14:27:25.432Z,58.80
2019-02-11T14:30:10.280Z,57.10
2019-02-11T14:32:55.788Z,57.20
2019-02-11T14:35:40.965Z,58.00
2019-02-11T14:38:26.259Z,57.60
2019-02-11T14:41:10.983Z,57.50
2019-02-11T14:43:55.817Z,57.30
2019-02-11T14:46:41.331Z,56.90
2019-02-11T14:49:35.222Z,57.00
2019-02-11T14:52:29.147Z,57.20
2019-02-11T14:55:23.112Z,56.10
2019-02-11T14:58:07.857Z,56.40
2019-02-11T15:00:53.052Z,56.40
2019-02-11T15:03:47.891Z,56.90
2019-02-11T15:06:32.969Z,57.20
2019-02-11T15:09:18.012Z,57.30
2019-02-11T15:12:02.897Z,57.30
2019-02-11T15:14:49.340Z,56.60
2019-02-11T15:17:34.753Z,56.80
2019-02-11T15:20:27.361Z,56.90
2019-02-11T15:23:20.985Z,56.90
2019-02-11T15:26:14.728Z,56.70
2019-02-11T15:28:59.613Z,56.80
2019-02-11T15:31:44.500Z,57.30
2019-02-11T15:34:29.797Z,57.70
2019-02-11T15:37:23.669Z,57.40
2019-02-11T15:40:17.609Z,57.60
2019-02-11T15:43:02.797Z,58.40
2019-02-11T15:45:56.644Z,59.10
2019-02-11T15:48:43.107Z,59.50
2019-02-11T15:51:27.969Z,59.80
2019-02-11T15:54:22.449Z,60.30
2019-02-11T15:57:16.534Z,60.90
2019-02-11T16:00:03.169Z,61.80
2019-02-11T16:02:48.996Z,61.80
2019-02-11T16:05:49.421Z,62.10
2019-02-11T16:08:38.673Z,61.90
2019-02-11T16:11:23.422Z,61.50
2019-02-11T16:14:08.564Z,61.80
2019-02-11T16:16:54.840Z,62.30
2019-02-11T16:19:48.693Z,63.30
2019-02-11T16:22:33.518Z,63.60
2019-02-11T16:25:18.453Z,64.10
2019-02-11T16:28:03.493Z,65.40
2019-02-11T16:30:58.638Z,65.70
2019-02-11T16:33:52.437Z,65.90
2019-02-11T16:36:36.999Z,65.80
2019-02-11T16:39:21.724Z,66.20
2019-02-11T16:42:06.662Z,66.70
2019-02-11T16:44:53.274Z,67.60
2019-02-11T16:47:37.996Z,68.40
2019-02-11T16:50:23.621Z,70.10
2019-02-11T16:53:08.385Z,70.00
2019-02-11T16:55:52.877Z,70.50
2019-02-11T16:58:47.263Z,70.90
2019-02-11T17:01:41.245Z,71.30
2019-02-11T17:04:35.444Z,72.00
2019-02-11T17:07:29.083Z,72.20
2019-02-11T17:10:14.150Z,71.90
2019-02-11T17:13:07.945Z,70.90
2019-02-11T17:15:52.952Z,71.00
2019-02-11T17:18:47.217Z,71.40
2019-02-11T17:21:41.813Z,70.80
2019-02-11T17:24:26.738Z,70.60
2019-02-11T17:27:11.709Z,70.00
2019-02-11T17:29:57.497Z,69.50
2019-02-11T17:32:51.990Z,69.20
2019-02-11T17:35:37.233Z,69.80
2019-02-11T17:38:22.584Z,69.50
2019-02-11T17:41:16.546Z,68.60
2019-02-11T17:44:01.313Z,67.80
2019-02-11T17:46:47.585Z,68.40
2019-02-11T17:49:31.976Z,68.10
2019-02-11T17:52:17.333Z,67.00
2019-02-11T17:55:02.325Z,66.90
2019-02-11T17:57:56.406Z,68.10
2019-02-11T18:00:54.370Z,67.10
2019-02-11T18:03:39.369Z,66.60
2019-02-11T18:06:24.365Z,66.40
2019-02-11T18:09:10.757Z,66.00
2019-02-11T18:11:55.829Z,66.20
2019-02-11T18:14:40.509Z,66.60
2019-02-11T18:17:25.968Z,66.60
2019-02-11T18:20:19.935Z,67.30
2019-02-11T18:23:05.801Z,67.60
2019-02-11T18:25:50.962Z,67.40
2019-02-11T18:28:44.966Z,67.80
2019-02-11T18:31:33.186Z,67.90
2019-02-11T18:34:16.741Z,67.60
2019-02-11T18:37:13.123Z,67.10
2019-02-11T18:39:58.549Z,67.00
2019-02-11T18:42:53.060Z,67.70
2019-02-11T18:45:46.525Z,67.90
2019-02-11T18:48:31.258Z,68.40
2019-02-11T18:51:16.732Z,69.30
2019-02-11T18:54:10.337Z,70.00
2019-02-11T18:56:55.549Z,70.90
2019-02-11T18:59:49.369Z,71.30
2019-02-11T19:02:35.533Z,71.20
2019-02-11T19:05:19.057Z,71.20
2019-02-11T19:08:13.261Z,71.10
2019-02-11T19:11:09.646Z,71.80
2019-02-11T19:13:54.092Z,71.20
2019-02-11T19:16:39.244Z,70.80
2019-02-11T19:19:24.446Z,71.00
2019-02-11T19:22:10.490Z,71.00
2019-02-11T19:24:55.443Z,70.90
2019-02-11T19:27:40.656Z,70.90
2019-02-11T19:30:34.721Z,71.50
2019-02-11T19:33:31.757Z,70.90
2019-02-11T19:36:16.940Z,70.40
2019-02-11T19:39:11.053Z,70.60
2019-02-11T19:42:05.442Z,71.10
2019-02-11T19:44:59.065Z,70.60
2019-02-11T19:47:44.087Z,70.70
2019-02-11T19:50:28.987Z,70.90
2019-02-11T19:53:14.393Z,71.00
2019-02-11T19:55:59.101Z,71.00
2019-02-11T19:58:52.725Z,71.20
2019-02-11T20:01:37.614Z,71.10
2019-02-11T20:04:31.685Z,71.30
2019-02-11T20:07:25.697Z,71.30
2019-02-11T20:10:10.662Z,71.80
2019-02-11T20:13:05.797Z,72.10
2019-02-11T20:15:50.241Z,72.50
2019-02-11T20:18:35.349Z,72.90
2019-02-11T20:21:20.799Z,73.40
2019-02-11T20:24:14.869Z,72.90
2019-02-11T20:27:09.056Z,72.90
2019-02-11T20:30:02.616Z,72.40
2019-02-11T20:32:57.209Z,71.60
2019-02-11T20:35:51.366Z,71.50
2019-02-11T20:38:45.585Z,71.20
2019-02-11T20:41:39.390Z,71.60
2019-02-11T20:44:24.249Z,72.10
2019-02-11T20:47:09.200Z,72.40
2019-02-11T20:50:08.973Z,71.90
2019-02-11T20:52:57.512Z,72.30
2019-02-11T20:55:51.187Z,72.80
2019-02-11T20:58:35.889Z,73.00
2019-02-11T21:01:20.863Z,73.50
2019-02-11T21:04:05.905Z,74.30
2019-02-11T21:06:51.389Z,74.70
2019-02-11T21:09:36.357Z,75.40
2019-02-11T21:12:21.245Z,76.20
2019-02-11T21:15:06.541Z,77.40
2019-02-11T21:17:51.996Z,78.20
2019-02-11T21:20:45.211Z,78.60
2019-02-11T21:23:30.642Z,78.60
2019-02-11T21:26:24.597Z,78.60
2019-02-11T21:29:12.205Z,78.50
2019-02-11T21:31:56.880Z,78.60
2019-02-11T21:34:41.761Z,78.20
2019-02-11T21:37:27.233Z,77.80
2019-02-11T21:40:21.241Z,77.30
2019-02-11T21:43:15.213Z,77.60
2019-02-11T21:45:59.656Z,77.80
2019-02-11T21:48:44.300Z,77.20
2019-02-11T21:51:29.836Z,77.00
2019-02-11T21:54:23.960Z,76.20
2019-02-11T21:57:17.988Z,76.20
2019-02-11T22:00:02.913Z,76.00
2019-02-11T22:02:58.589Z,75.40
2019-02-11T22:05:52.905Z,75.40
2019-02-11T22:08:46.873Z,75.10
2019-02-11T22:11:40.757Z,75.00
2019-02-11T22:14:26.026Z,75.50
2019-02-11T22:17:20.277Z,75.00
2019-02-11T22:20:15.628Z,74.90
2019-02-11T22:23:03.410Z,74.30
2019-02-11T22:25:49.297Z,73.80
2019-02-11T22:28:34.732Z,73.80
2019-02-11T22:31:19.677Z,74.10
2019-02-11T22:34:05.443Z,74.00
2019-02-11T22:36:59.365Z,73.90
2019-02-11T22:39:45.449Z,74.10
2019-02-11T22:42:30.505Z,74.80
2019-02-11T22:45:16.528Z,75.30
2019-02-11T22:48:01.685Z,75.50
2019-02-11T22:50:46.828Z,76.00
2019-02-11T22:53:40.717Z,76.30
2019-02-11T22:56:25.592Z,76.50
2019-02-11T22:59:20.389Z,76.60
2019-02-11T23:02:05.101Z,77.10
2019-02-11T23:04:49.810Z,77.30
2019-02-11T23:07:35.113Z,77.80
2019-02-11T23:10:20.520Z,78.30
2019-02-11T23:13:14.545Z,78.50
2019-02-11T23:15:59.252Z,78.70
2019-02-11T23:18:44.025Z,79.00
2019-02-11T23:21:29.281Z,79.80
2019-02-11T23:24:23.148Z,79.60
2019-02-11T23:27:17.029Z,80.20
2019-02-11T23:30:01.590Z,80.40
2019-02-11T23:32:47.157Z,79.80
2019-02-11T23:35:40.889Z,79.60
2019-02-11T23:38:25.945Z,79.50
2019-02-11T23:41:19.988Z,80.00
2019-02-11T23:44:14.344Z,80.30
2019-02-11T23:47:08.075Z,80.70
2019-02-11T23:50:01.776Z,80.90
2019-02-11T23:52:47.180Z,81.00
2019-02-11T23:55:41.173Z,81.00
2019-02-11T23:58:34.844Z,80.80
